createdAt,value
2016-04-20T08:26:52.406Z,8.59
2016-04-20T08:27:02.406Z,8.53
2016-04-20T08:27:12.406Z,8.64
2016-04-20T08:27:22.422Z,8.59
2016-04-20T08:27:32.422Z,8.53
2016-04-20T08:27:42.422Z,8.57
2016-04-20T08:27:52.425Z,8.45
2016-04-20T08:28:02.425Z,8.41
2016-04-20T08:28:12.441Z,8.5
2016-04-20T08:28:22.441Z,8.5
2016-04-20T08:28:32.441Z,8.54
2016-04-20T08:28:42.456Z,8.34
2016-04-20T08:28:52.458Z,8.44
2016-04-20T08:29:02.458Z,8.34
2016-04-20T08:29:12.458Z,8.34
2016-04-20T08:29:22.536Z,8.34
2016-04-20T08:29:32.474Z,8.31
2016-04-20T08:29:42.474Z,8.34
2016-04-20T08:29:52.493Z,8.34
2016-04-20T08:30:02.493Z,8.31
2016-04-20T08:30:12.493Z,8.27
2016-04-20T08:30:22.493Z,8.31
2016-04-20T08:30:32.508Z,8.31
2016-04-20T08:31:01.433Z,8.24
2016-04-20T08:31:11.402Z,8.16
2016-04-20T08:31:21.417Z,8.23
2016-04-20T08:31:31.417Z,8.17
2016-04-20T08:31:41.417Z,8.16
2016-04-20T08:31:51.419Z,8.16
2016-04-20T08:32:01.435Z,8.16
2016-04-20T08:32:11.435Z,8.14
2016-04-20T08:32:21.435Z,8.08
2016-04-20T08:32:31.451Z,8.08
2016-04-20T08:32:41.451Z,8.05
2016-04-20T08:32:51.454Z,8.08
2016-04-20T08:33:01.454Z,8.06
2016-04-20T08:33:11.454Z,8.03
2016-04-20T08:33:21.469Z,7.99
2016-04-20T08:33:31.469Z,8.08
2016-04-20T08:33:43.157Z,7.98
2016-04-20T08:33:53.129Z,7.98
2016-04-20T08:34:03.129Z,7.93
2016-04-20T08:34:13.129Z,7.99
2016-04-20T08:34:23.144Z,7.98
2016-04-20T08:34:33.144Z,7.96
2016-04-20T08:34:43.144Z,7.98
2016-04-20T08:34:53.302Z,7.9
2016-04-20T08:35:03.177Z,7.87
2016-04-20T08:35:13.162Z,7.96
2016-04-20T08:35:23.162Z,8.03
2016-04-20T08:35:33.162Z,8.05
2016-04-20T08:35:43.177Z,8.03
2016-04-20T08:35:53.180Z,8.02
2016-04-20T08:36:03.180Z,8.05
2016-04-20T08:36:13.196Z,8.01
2016-04-20T08:36:23.196Z,8.01
2016-04-20T08:36:33.196Z,8.02
2016-04-20T08:36:43.196Z,7.96
2016-04-20T08:36:53.215Z,8.01
2016-04-20T08:37:03.215Z,8.05
2016-04-20T08:37:13.730Z,8.02
2016-04-20T08:37:23.230Z,8.05
2016-04-20T08:37:33.230Z,8.06
2016-04-20T08:37:43.230Z,8.08
2016-04-20T08:37:53.232Z,8.11
2016-04-20T08:38:03.248Z,8.2
2016-04-20T08:38:13.248Z,8.17
2016-04-20T08:38:23.248Z,8.18
2016-04-20T08:38:33.248Z,8.24
2016-04-20T08:38:43.857Z,8.16
2016-04-20T08:38:53.267Z,8.27
2016-04-20T08:39:03.282Z,8.28
2016-04-20T08:39:13.267Z,8.27
2016-04-20T08:39:23.282Z,8.36
2016-04-20T08:39:33.282Z,8.34
2016-04-20T08:39:43.282Z,8.38
2016-04-20T08:39:53.285Z,8.34
2016-04-20T08:40:03.301Z,8.34
2016-04-20T08:40:13.301Z,8.35
2016-04-20T08:40:23.301Z,8.5
2016-04-20T08:40:33.301Z,8.49
2016-04-20T08:40:43.316Z,8.5
2016-04-20T08:40:53.335Z,8.54
2016-04-20T08:41:03.319Z,8.6
2016-04-20T08:41:13.335Z,8.61
2016-04-20T08:41:23.335Z,8.59
2016-04-20T08:41:33.335Z,8.56
2016-04-20T08:41:43.335Z,8.61
2016-04-20T08:41:53.353Z,8.61
2016-04-20T08:42:03.353Z,8.53
2016-04-20T08:42:13.353Z,8.54
2016-04-20T08:42:23.353Z,8.63
2016-04-20T08:42:33.368Z,8.54
2016-04-20T08:42:43.368Z,8.6
2016-04-20T08:42:53.371Z,8.57
2016-04-20T08:43:03.387Z,8.46
2016-04-20T08:43:13.387Z,8.52
2016-04-20T08:43:23.387Z,8.59
2016-04-20T08:43:33.387Z,8.5
2016-04-20T08:43:43.403Z,8.44
2016-04-20T08:43:53.406Z,8.45
2016-04-20T08:44:03.406Z,8.44
2016-04-20T08:44:13.406Z,8.35
2016-04-20T08:44:23.421Z,8.44
2016-04-20T08:44:33.421Z,8.42
2016-04-20T08:44:43.421Z,8.44
2016-04-20T08:44:53.424Z,8.45
2016-04-20T08:45:03.440Z,8.34
2016-04-20T08:45:13.440Z,8.44
2016-04-20T08:45:23.440Z,8.38
2016-04-20T08:45:33.440Z,8.31
2016-04-20T08:45:43.455Z,8.32
2016-04-20T08:45:53.457Z,8.36
2016-04-20T08:46:03.457Z,8.31
2016-04-20T08:46:13.473Z,8.31
2016-04-20T08:46:23.473Z,8.35
2016-04-20T08:46:33.473Z,8.34
2016-04-20T08:46:43.473Z,8.32
2016-04-20T08:46:53.492Z,8.41
2016-04-20T08:47:03.492Z,8.34
2016-04-20T08:47:13.492Z,8.28
2016-04-20T08:47:23.492Z,8.34
2016-04-20T08:47:33.492Z,8.34
2016-04-20T08:47:43.507Z,8.31
2016-04-20T08:47:53.510Z,8.32
2016-04-20T08:48:03.510Z,8.34
2016-04-20T08:48:13.510Z,8.38
2016-04-20T08:48:23.526Z,8.39
2016-04-20T08:48:33.526Z,8.36
2016-04-20T08:48:43.542Z,8.26
2016-04-20T08:48:53.545Z,8.34
2016-04-20T08:49:03.545Z,8.32
2016-04-20T08:49:13.545Z,8.27
2016-04-20T08:49:23.560Z,8.21
2016-04-20T08:49:33.560Z,8.32
2016-04-20T08:49:43.576Z,8.31
2016-04-20T08:49:53.562Z,8.27
2016-04-20T08:50:03.578Z,8.27
2016-04-20T08:50:13.578Z,8.26
2016-04-20T08:50:23.578Z,8.27
2016-04-20T08:50:33.593Z,8.23
2016-04-20T08:50:43.593Z,8.32
2016-04-20T08:50:53.596Z,8.31
2016-04-20T08:51:03.596Z,8.31
2016-04-20T08:51:13.596Z,8.31
2016-04-20T08:51:23.612Z,8.27
2016-04-20T08:51:33.612Z,8.28
2016-04-20T08:51:43.612Z,8.34
2016-04-20T08:51:53.614Z,8.28
2016-04-20T08:52:03.630Z,8.18
2016-04-20T08:52:13.630Z,8.26
2016-04-20T08:52:23.645Z,8.27
2016-04-20T08:52:33.645Z,8.31
2016-04-20T08:52:43.645Z,8.26
2016-04-20T08:52:53.648Z,8.23
2016-04-20T08:53:03.648Z,8.27
2016-04-20T08:53:13.648Z,8.28
2016-04-20T08:53:23.664Z,8.27
2016-04-20T08:53:33.664Z,8.27
2016-04-20T08:53:43.664Z,8.27
2016-04-20T08:53:53.683Z,8.34
2016-04-20T08:54:03.683Z,8.31
2016-04-20T08:54:13.683Z,8.31
2016-04-20T08:54:23.683Z,8.27
2016-04-20T08:54:33.683Z,8.28
2016-04-20T08:54:43.698Z,8.26
2016-04-20T08:54:53.700Z,8.28
2016-04-20T08:55:03.700Z,8.31
2016-04-20T08:55:13.716Z,8.32
2016-04-20T08:55:23.716Z,8.31
2016-04-20T08:55:33.716Z,8.23
2016-04-20T08:55:43.731Z,8.24
2016-04-20T08:55:53.734Z,8.32
2016-04-20T08:56:03.734Z,8.31
2016-04-20T08:56:13.734Z,8.35
2016-04-20T08:56:23.750Z,8.32
2016-04-20T08:56:33.750Z,8.34
2016-04-20T08:56:43.750Z,8.36
2016-04-20T08:56:53.752Z,8.32
2016-04-20T08:57:03.768Z,8.35
2016-04-20T08:57:13.768Z,8.34
2016-04-20T08:57:23.768Z,8.36
2016-04-20T08:57:33.768Z,8.32
2016-04-20T08:57:43.783Z,8.35
2016-04-20T08:57:53.787Z,8.34
2016-04-20T08:58:03.787Z,8.35
2016-04-20T08:58:13.787Z,8.35
2016-04-20T08:58:23.803Z,8.34
2016-04-20T08:58:33.803Z,8.34
2016-04-20T08:58:43.803Z,8.35
2016-04-20T08:58:53.821Z,8.35
2016-04-20T08:59:03.821Z,8.35
2016-04-20T08:59:13.821Z,8.35
2016-04-20T08:59:23.821Z,8.38
2016-04-20T08:59:33.836Z,8.34
2016-04-20T08:59:43.836Z,8.24
2016-04-20T08:59:53.839Z,8.28
2016-04-20T09:00:03.855Z,8.26
2016-04-20T09:00:13.855Z,8.21
2016-04-20T09:00:23.855Z,8.32
2016-04-20T09:00:33.855Z,8.27
2016-04-20T09:00:43.855Z,8.27
2016-04-20T09:00:53.873Z,8.32
2016-04-20T09:01:03.873Z,8.27
2016-04-20T09:01:13.873Z,8.27
2016-04-20T09:01:23.889Z,8.2
2016-04-20T09:01:33.889Z,8.26
2016-04-20T09:01:43.889Z,8.24
2016-04-20T09:01:53.891Z,8.26
2016-04-20T09:02:03.907Z,8.17
2016-04-20T09:02:13.922Z,8.23
2016-04-20T09:02:23.907Z,8.24
2016-04-20T09:02:33.922Z,8.2
2016-04-20T09:02:43.922Z,8.2
2016-04-20T09:02:53.925Z,8.18
2016-04-20T09:03:03.925Z,8.17
2016-04-20T09:03:13.941Z,8.17
2016-04-20T09:03:23.941Z,8.14
2016-04-20T09:03:33.941Z,8.16
2016-04-20T09:03:43.941Z,8.2
2016-04-20T09:03:53.959Z,8.16
2016-04-20T09:04:03.959Z,8.17
2016-04-20T09:04:13.959Z,8.13
2016-04-20T09:04:23.974Z,8.23
2016-04-20T09:04:33.974Z,8.18
2016-04-20T09:04:43.974Z,8.18
2016-04-20T09:04:53.977Z,8.06
2016-04-20T09:05:03.977Z,8.17
2016-04-20T09:05:13.993Z,8.09
2016-04-20T09:05:23.993Z,8.18
2016-04-20T09:05:33.993Z,8.17
2016-04-20T09:05:43.993Z,8.13
2016-04-20T09:05:54.010Z,8.17
2016-04-20T09:06:04.010Z,8.14
2016-04-20T09:06:14.010Z,8.13
2016-04-20T09:06:24.026Z,8.17
2016-04-20T09:06:34.026Z,8.05
2016-04-20T09:06:44.026Z,8.08
2016-04-20T09:06:54.030Z,8.11
2016-04-20T09:07:04.030Z,8.17
2016-04-20T09:07:14.046Z,8.13
2016-04-20T09:07:24.046Z,8.08
2016-04-20T09:07:34.046Z,8.03
2016-04-20T09:07:44.046Z,8.13
2016-04-20T09:07:54.063Z,8.11
2016-04-20T09:08:04.063Z,8.18
2016-04-20T09:08:14.079Z,8.14
2016-04-20T09:08:24.079Z,8.16
2016-04-20T09:08:34.079Z,8.17
2016-04-20T09:08:44.079Z,8.08
2016-04-20T09:08:54.082Z,8.17
2016-04-20T09:09:04.098Z,8.09
2016-04-20T09:09:14.098Z,8.08
2016-04-20T09:09:24.098Z,8.09
2016-04-20T09:09:34.113Z,8.11
2016-04-20T09:09:44.113Z,8.03
2016-04-20T09:09:54.116Z,8.11
2016-04-20T09:10:04.116Z,8.06
2016-04-20T09:10:14.132Z,8.08
2016-04-20T09:10:24.132Z,8.06
2016-04-20T09:10:34.132Z,8.08
2016-04-20T09:10:44.163Z,8.03
2016-04-20T09:10:54.135Z,8.06
2016-04-20T09:11:04.150Z,7.98
2016-04-20T09:11:14.150Z,8.08
2016-04-20T09:11:24.150Z,8.05
2016-04-20T09:11:34.166Z,8.01
2016-04-20T09:11:44.166Z,8.01
2016-04-20T09:11:54.168Z,7.99
2016-04-20T09:12:04.168Z,8.03
2016-04-20T09:12:14.184Z,8.06
2016-04-20T09:12:24.184Z,8.09
2016-04-20T09:12:34.184Z,8.11
2016-04-20T09:12:44.199Z,7.98
2016-04-20T09:12:54.202Z,8.02
2016-04-20T09:13:04.202Z,7.99
2016-04-20T09:13:14.202Z,8.06
2016-04-20T09:13:24.218Z,8.01
2016-04-20T09:13:34.218Z,8.05
2016-04-20T09:13:44.218Z,8.03
2016-04-20T09:13:54.221Z,8.02
2016-04-20T09:14:04.237Z,8.05
2016-04-20T09:14:14.237Z,8.03
2016-04-20T09:14:24.237Z,8.06
2016-04-20T09:14:34.237Z,8.06
2016-04-20T09:14:44.252Z,8.08
2016-04-20T09:14:54.254Z,8.08
2016-04-20T09:15:04.254Z,8.02
2016-04-20T09:15:14.254Z,8.13
2016-04-20T09:15:24.270Z,8.03
2016-04-20T09:15:34.270Z,8.05
2016-04-20T09:15:44.270Z,8.02
2016-04-20T09:15:54.288Z,8.02
2016-04-20T09:16:04.288Z,8.13
2016-04-20T09:16:14.288Z,8.08
2016-04-20T09:16:24.288Z,8.09
2016-04-20T09:16:34.304Z,8.08
2016-04-20T09:16:44.304Z,8.13
2016-04-20T09:16:54.306Z,8.13
2016-04-20T09:17:04.306Z,8.08
2016-04-20T09:17:14.322Z,8.09
2016-04-20T09:17:24.322Z,8.14
2016-04-20T09:17:34.322Z,8.13
2016-04-20T09:17:44.322Z,8.14
2016-04-20T09:17:54.340Z,8.2
2016-04-20T09:18:04.340Z,8.18
2016-04-20T09:18:14.340Z,8.2
2016-04-20T09:18:24.340Z,8.21
2016-04-20T09:18:34.356Z,8.18
2016-04-20T09:18:44.356Z,8.26
2016-04-20T09:18:54.359Z,8.35
2016-04-20T09:19:04.359Z,8.26
2016-04-20T09:19:14.375Z,8.31
2016-04-20T09:19:24.375Z,8.31
2016-04-20T09:19:34.375Z,8.27
2016-04-20T09:19:44.390Z,8.28
2016-04-20T09:19:54.393Z,8.27
2016-04-20T09:20:04.393Z,8.32
2016-04-20T09:20:14.409Z,8.31
2016-04-20T09:20:24.409Z,8.27
2016-04-20T09:20:34.424Z,8.34
2016-04-20T09:20:44.409Z,8.36
2016-04-20T09:20:54.411Z,8.41
2016-04-20T09:21:04.426Z,8.38
2016-04-20T09:21:14.426Z,8.35
2016-04-20T09:21:24.426Z,8.42
2016-04-20T09:21:34.426Z,8.36
2016-04-20T09:21:44.442Z,8.34
2016-04-20T09:21:54.451Z,8.36
2016-04-20T09:22:04.455Z,8.34
2016-04-20T09:22:14.455Z,8.38
2016-04-20T09:22:24.460Z,8.45
2016-04-20T09:22:34.460Z,8.5
2016-04-20T09:22:44.460Z,8.38
2016-04-20T09:22:54.463Z,8.46
2016-04-20T09:23:04.510Z,8.49
2016-04-20T09:23:14.478Z,8.49
2016-04-20T09:23:24.494Z,8.41
2016-04-20T09:23:34.494Z,8.46
2016-04-20T09:23:44.494Z,8.59
2016-04-20T09:23:54.497Z,8.45
2016-04-20T09:24:04.513Z,8.57
2016-04-20T09:24:14.513Z,8.64
2016-04-20T09:24:24.513Z,8.6
2016-04-20T09:24:34.513Z,8.6
2016-04-20T09:24:44.513Z,8.6
2016-04-20T09:24:54.530Z,8.61
2016-04-20T09:25:04.530Z,8.64
2016-04-20T09:25:14.530Z,8.68
2016-04-20T09:25:24.546Z,8.56
2016-04-20T09:25:34.546Z,8.66
2016-04-20T09:25:44.546Z,8.63
2016-04-20T09:25:54.549Z,8.6
2016-04-20T09:26:04.549Z,8.71
2016-04-20T09:26:14.564Z,8.66
2016-04-20T09:26:24.564Z,8.72
2016-04-20T09:26:34.564Z,8.68
2016-04-20T09:26:44.580Z,8.81
2016-04-20T09:26:54.582Z,8.72
2016-04-20T09:27:04.582Z,8.79
2016-04-20T09:27:14.582Z,8.78
2016-04-20T09:27:24.598Z,8.87
2016-04-20T09:27:34.598Z,8.79
2016-04-20T09:27:44.598Z,8.89
2016-04-20T09:27:54.616Z,8.95
2016-04-20T09:28:04.616Z,8.9
2016-04-20T09:28:14.616Z,8.93
2016-04-20T09:28:24.616Z,8.86
2016-04-20T09:28:34.632Z,9
2016-04-20T09:28:45.929Z,8.97
2016-04-20T09:28:54.651Z,9.02
2016-04-20T09:29:04.635Z,9.08
2016-04-20T09:29:14.651Z,9.08
2016-04-20T09:29:24.651Z,9.11
2016-04-20T09:29:34.651Z,9.18
2016-04-20T09:29:44.666Z,9.19
2016-04-20T09:29:54.669Z,9.19
2016-04-20T09:30:04.669Z,9.26
2016-04-20T09:30:14.669Z,9.31
2016-04-20T09:30:24.669Z,9.22
2016-04-20T09:30:34.685Z,9.42
2016-04-20T09:30:44.685Z,9.45
2016-04-20T09:30:54.687Z,9.47
2016-04-20T09:31:04.702Z,9.52
2016-04-20T09:31:14.702Z,9.55
2016-04-20T09:31:24.702Z,9.52
2016-04-20T09:31:34.718Z,9.56
2016-04-20T09:31:44.718Z,9.66
2016-04-20T09:31:54.721Z,9.67
2016-04-20T09:32:04.721Z,9.77
2016-04-20T09:32:14.721Z,9.84
2016-04-20T09:32:24.737Z,9.82
2016-04-20T09:32:34.737Z,9.87
2016-04-20T09:32:44.737Z,9.95
2016-04-20T09:32:54.754Z,9.99
2016-04-20T09:33:04.754Z,10
2016-04-20T09:33:14.754Z,10.03
2016-04-20T09:33:24.754Z,10.02
2016-04-20T09:33:34.770Z,10.06
2016-04-20T09:33:44.770Z,10.18
2016-04-20T09:33:54.773Z,10.25
2016-04-20T09:34:04.773Z,10.2
2016-04-20T09:34:14.789Z,10.17
2016-04-20T09:34:24.789Z,10.27
2016-04-20T09:34:34.789Z,10.23
2016-04-20T09:34:53.776Z,10.36
2016-04-20T09:35:03.760Z,10.33
2016-04-20T09:35:13.729Z,10.36
2016-04-20T09:35:23.729Z,10.39
2016-04-20T09:35:33.745Z,10.38
2016-04-20T09:35:43.745Z,10.41
2016-04-20T09:35:53.747Z,10.46
2016-04-20T09:36:03.747Z,10.42
2016-04-20T09:36:13.747Z,10.51
2016-04-20T09:36:23.762Z,10.49
2016-04-20T09:36:33.762Z,10.55
2016-04-20T09:36:43.778Z,10.48
2016-04-20T09:36:53.781Z,10.55
2016-04-20T09:37:03.797Z,10.51
2016-04-20T09:37:13.797Z,10.48
2016-04-20T09:37:23.797Z,10.57
2016-04-20T09:37:33.797Z,10.48
2016-04-20T09:37:43.797Z,10.55
2016-04-20T09:37:53.799Z,10.62
2016-04-20T09:38:03.814Z,10.62
2016-04-20T09:38:13.814Z,10.59
2016-04-20T09:38:23.814Z,10.62
2016-04-20T09:38:33.830Z,10.65
2016-04-20T09:38:43.830Z,10.62
2016-04-20T09:38:53.834Z,10.53
2016-04-20T09:39:03.834Z,10.53
2016-04-20T09:39:13.849Z,10.67
2016-04-20T09:39:23.849Z,10.64
2016-04-20T09:39:33.849Z,10.62
2016-04-20T09:39:43.849Z,10.62
2016-04-20T09:39:53.867Z,10.65
2016-04-20T09:40:03.867Z,10.67
2016-04-20T09:40:13.867Z,10.65
2016-04-20T09:40:23.867Z,10.61
2016-04-20T09:40:33.883Z,10.59
2016-04-20T09:40:43.883Z,10.58
2016-04-20T09:40:53.886Z,10.53
2016-04-20T09:41:03.901Z,10.49
2016-04-20T09:41:32.839Z,10.41
2016-04-20T09:41:42.808Z,10.39
2016-04-20T09:41:52.811Z,10.34
2016-04-20T09:42:02.811Z,10.38
2016-04-20T09:42:12.826Z,10.31
2016-04-20T09:42:22.826Z,10.42
2016-04-20T09:42:32.842Z,10.39
2016-04-20T09:42:42.842Z,10.34
2016-04-20T09:42:52.844Z,10.39
2016-04-20T09:43:02.844Z,10.31
2016-04-20T09:43:12.844Z,10.34
2016-04-20T09:43:22.859Z,10.38
2016-04-20T09:43:32.859Z,10.21
2016-04-20T09:43:42.875Z,10.25
2016-04-20T09:43:52.862Z,10.2
2016-04-20T09:44:02.878Z,10.18
2016-04-20T09:44:12.878Z,10.21
2016-04-20T09:44:22.878Z,10.15
2016-04-20T09:44:32.894Z,10.12
2016-04-20T09:44:42.894Z,10.13
2016-04-20T09:44:52.896Z,10.07
2016-04-20T09:45:02.896Z,10.09
2016-04-20T09:45:12.911Z,10.05
2016-04-20T09:45:22.911Z,10.05
2016-04-20T09:45:32.911Z,9.95
2016-04-20T09:45:42.927Z,10.02
2016-04-20T09:45:52.930Z,9.92
2016-04-20T09:46:02.930Z,9.9
2016-04-20T09:46:12.930Z,9.87
2016-04-20T09:46:22.930Z,9.84
2016-04-20T09:46:32.946Z,9.85
2016-04-20T09:46:42.946Z,9.81
2016-04-20T09:46:52.949Z,9.87
2016-04-20T09:47:02.949Z,9.82
2016-04-20T09:47:12.964Z,9.67
2016-04-20T09:47:22.964Z,9.67
2016-04-20T09:47:32.964Z,9.63
2016-04-20T09:47:42.980Z,9.62
2016-04-20T09:47:52.983Z,9.56
2016-04-20T09:48:02.983Z,9.51
2016-04-20T09:48:12.998Z,9.58
2016-04-20T09:48:22.998Z,9.56
2016-04-20T09:48:32.998Z,9.56
2016-04-20T09:48:43.014Z,9.56
2016-04-20T09:48:53.017Z,9.56
2016-04-20T09:49:03.017Z,9.54
2016-04-20T09:49:13.017Z,9.52
2016-04-20T09:49:23.017Z,9.47
2016-04-20T09:49:33.033Z,9.45
2016-04-20T09:49:43.033Z,9.45
2016-04-20T09:49:53.035Z,9.47
2016-04-20T09:50:03.175Z,9.44
2016-04-20T09:50:13.050Z,9.36
2016-04-20T09:50:23.050Z,9.42
2016-04-20T09:50:33.050Z,9.39
2016-04-20T09:50:43.066Z,9.42
2016-04-20T09:50:53.069Z,9.37
2016-04-20T09:51:03.069Z,9.4
2016-04-20T09:51:13.069Z,9.4
2016-04-20T09:51:23.085Z,9.4
2016-04-20T09:51:33.085Z,9.44
2016-04-20T09:51:43.085Z,9.42
2016-04-20T09:51:53.087Z,9.45
2016-04-20T09:52:03.102Z,9.51
2016-04-20T09:52:13.102Z,9.4
2016-04-20T09:52:23.102Z,9.36
2016-04-20T09:52:33.118Z,9.4
2016-04-20T09:52:43.118Z,9.4
2016-04-20T09:52:53.121Z,9.48
2016-04-20T09:53:03.121Z,9.36
2016-04-20T09:53:13.136Z,9.45
2016-04-20T09:53:23.136Z,9.44
2016-04-20T09:53:33.136Z,9.39
2016-04-20T09:53:43.136Z,9.45
2016-04-20T09:53:53.155Z,9.36
2016-04-20T09:54:03.155Z,9.48
2016-04-20T09:54:13.171Z,9.4
2016-04-20T09:54:23.155Z,9.31
2016-04-20T09:54:33.171Z,9.34
2016-04-20T09:54:43.186Z,9.33
2016-04-20T09:54:53.174Z,9.34
2016-04-20T09:55:03.189Z,9.34
2016-04-20T09:55:13.189Z,9.4
2016-04-20T09:55:23.189Z,9.31
2016-04-20T09:55:33.205Z,9.29
2016-04-20T09:55:43.205Z,9.3
2016-04-20T09:55:53.207Z,9.29
2016-04-20T09:56:03.207Z,9.24
2016-04-20T09:56:13.207Z,9.29
2016-04-20T09:56:23.238Z,9.34
2016-04-20T09:56:33.223Z,9.26
2016-04-20T09:56:43.223Z,9.29
2016-04-20T09:56:53.241Z,9.21
2016-04-20T09:57:03.241Z,9.24
2016-04-20T09:57:13.241Z,9.29
2016-04-20T09:57:23.257Z,9.26
2016-04-20T09:57:33.257Z,9.29
2016-04-20T09:57:43.272Z,9.24
2016-04-20T09:57:53.260Z,9.26
2016-04-20T09:58:03.260Z,9.3
2016-04-20T09:58:13.275Z,9.31
2016-04-20T09:58:23.275Z,9.24
2016-04-20T09:58:33.275Z,9.22
2016-04-20T09:58:43.291Z,9.33
2016-04-20T09:58:53.293Z,9.3
2016-04-20T09:59:03.293Z,9.31
2016-04-20T09:59:13.293Z,9.26
2016-04-20T09:59:23.309Z,9.33
2016-04-20T09:59:33.309Z,9.33
2016-04-20T09:59:43.309Z,9.34
2016-04-20T09:59:53.312Z,9.27
2016-04-20T10:00:03.327Z,9.24
2016-04-20T10:00:13.327Z,9.29
2016-04-20T10:00:23.327Z,9.34
2016-04-20T10:00:33.327Z,9.37
2016-04-20T10:00:43.343Z,9.33
2016-04-20T10:00:53.361Z,9.33
2016-04-20T10:01:03.361Z,9.34
2016-04-20T10:01:13.361Z,9.34
2016-04-20T10:01:23.361Z,9.36
2016-04-20T10:01:33.361Z,9.39
2016-04-20T10:01:43.361Z,9.37
2016-04-20T10:01:53.379Z,9.42
2016-04-20T10:02:03.379Z,9.42
2016-04-20T10:02:13.379Z,9.37
2016-04-20T10:02:23.989Z,9.34
2016-04-20T10:02:33.410Z,9.47
2016-04-20T10:02:43.395Z,9.37
2016-04-20T10:02:53.398Z,9.44
2016-04-20T10:03:03.413Z,9.42
2016-04-20T10:03:13.413Z,9.39
2016-04-20T10:03:23.413Z,9.42
2016-04-20T10:03:33.413Z,9.42
2016-04-20T10:03:43.429Z,9.48
2016-04-20T10:03:53.431Z,9.37
2016-04-20T10:04:03.431Z,9.42
2016-04-20T10:04:13.431Z,9.42
2016-04-20T10:04:23.447Z,9.45
2016-04-20T10:04:33.447Z,9.48
2016-04-20T10:04:43.447Z,9.51
2016-04-20T10:04:53.481Z,9.52
2016-04-20T10:05:03.481Z,9.55
2016-04-20T10:05:13.465Z,9.58
2016-04-20T10:05:23.481Z,9.59
2016-04-20T10:05:33.481Z,9.55
2016-04-20T10:05:43.481Z,9.59
2016-04-20T10:05:53.484Z,9.56
2016-04-20T10:06:03.484Z,9.62
2016-04-20T10:06:13.500Z,9.62
2016-04-20T10:06:23.500Z,9.73
2016-04-20T10:06:33.500Z,9.69
2016-04-20T10:06:43.500Z,9.69
2016-04-20T10:06:53.517Z,9.72
2016-04-20T10:07:03.517Z,9.66
2016-04-20T10:07:13.517Z,9.74
2016-04-20T10:07:23.533Z,9.73
2016-04-20T10:07:33.533Z,9.77
2016-04-20T10:07:43.533Z,9.76
2016-04-20T10:07:53.536Z,9.81
2016-04-20T10:08:03.551Z,9.77
2016-04-20T10:08:13.551Z,9.87
2016-04-20T10:08:23.551Z,9.81
2016-04-20T10:08:33.567Z,9.85
2016-04-20T10:08:43.567Z,9.81
2016-04-20T10:08:53.570Z,9.87
2016-04-20T10:09:03.570Z,9.84
2016-04-20T10:09:13.570Z,9.82
2016-04-20T10:09:23.601Z,9.84
2016-04-20T10:09:33.601Z,9.81
2016-04-20T10:09:43.586Z,9.84
2016-04-20T10:09:53.620Z,9.85
2016-04-20T10:10:03.604Z,9.85
2016-04-20T10:10:13.604Z,9.85
2016-04-20T10:10:23.620Z,9.82
2016-04-20T10:10:33.620Z,9.82
2016-04-20T10:10:43.620Z,9.82
2016-04-20T10:10:53.623Z,9.84
2016-04-20T10:11:03.639Z,9.82
2016-04-20T10:11:13.639Z,9.82
2016-04-20T10:11:23.639Z,9.82
2016-04-20T10:11:33.639Z,9.84
2016-04-20T10:11:43.639Z,9.82
2016-04-20T10:11:53.656Z,9.84
2016-04-20T10:12:03.656Z,9.82
2016-04-20T10:12:13.672Z,9.84
2016-04-20T10:12:23.672Z,9.85
2016-04-20T10:12:33.672Z,9.84
2016-04-20T10:12:43.672Z,9.85
2016-04-20T10:12:53.690Z,9.82
2016-04-20T10:13:03.706Z,9.8
2016-04-20T10:13:13.690Z,9.81
2016-04-20T10:13:23.690Z,9.77
2016-04-20T10:13:33.690Z,9.88
2016-04-20T10:13:43.706Z,9.87
2016-04-20T10:13:53.709Z,9.87
2016-04-20T10:14:03.709Z,9.94
2016-04-20T10:14:13.725Z,9.88
2016-04-20T10:14:23.725Z,9.92
2016-04-20T10:14:33.725Z,9.94
2016-04-20T10:14:43.740Z,9.99
2016-04-20T10:14:53.743Z,9.99
2016-04-20T10:15:03.743Z,10.05
2016-04-20T10:15:13.743Z,10.02
2016-04-20T10:15:23.743Z,10.02
2016-04-20T10:15:33.775Z,10.06
2016-04-20T10:15:43.759Z,10.13
2016-04-20T10:15:53.761Z,10.13
2016-04-20T10:16:03.777Z,10.24
2016-04-20T10:16:13.777Z,10.17
2016-04-20T10:16:23.777Z,10.2
2016-04-20T10:16:33.777Z,10.2
2016-04-20T10:16:43.792Z,10.27
2016-04-20T10:16:53.795Z,10.13
2016-04-20T10:17:03.795Z,10.25
2016-04-20T10:17:13.795Z,10.33
2016-04-20T10:17:23.811Z,10.31
2016-04-20T10:17:33.811Z,10.34
2016-04-20T10:17:43.842Z,10.42
2016-04-20T10:17:53.829Z,10.43
2016-04-20T10:18:03.829Z,10.36
2016-04-20T10:18:13.829Z,10.42
2016-04-20T10:18:23.829Z,10.46
2016-04-20T10:18:33.845Z,10.53
2016-04-20T10:18:43.876Z,10.53
2016-04-20T10:18:53.847Z,10.57
2016-04-20T10:19:03.847Z,10.58
2016-04-20T10:19:13.863Z,10.62
2016-04-20T10:19:23.863Z,10.59
2016-04-20T10:19:33.878Z,10.58
2016-04-20T10:19:43.894Z,10.65
2016-04-20T10:19:53.881Z,10.64
2016-04-20T10:20:04.006Z,10.75
2016-04-20T10:20:13.881Z,10.79
2016-04-20T10:20:23.897Z,10.79
2016-04-20T10:20:33.897Z,10.68
2016-04-20T10:20:43.913Z,10.77
2016-04-20T10:20:53.900Z,10.84
2016-04-20T10:21:03.916Z,10.89
2016-04-20T10:21:13.916Z,10.87
2016-04-20T10:21:23.931Z,10.92
2016-04-20T10:21:33.916Z,10.83
2016-04-20T10:21:43.947Z,10.9
2016-04-20T10:21:53.933Z,10.94
2016-04-20T10:22:03.933Z,10.9
2016-04-20T10:22:13.949Z,10.94
2016-04-20T10:22:23.949Z,11.02
2016-04-20T10:22:33.949Z,11
2016-04-20T10:22:43.964Z,10.94
2016-04-20T10:22:53.967Z,11.05
2016-04-20T10:23:03.967Z,11.04
2016-04-20T10:23:13.967Z,11
2016-04-20T10:23:23.967Z,11.05
2016-04-20T10:23:33.983Z,11.02
2016-04-20T10:23:43.999Z,11.02
2016-04-20T10:23:54.002Z,11.05
2016-04-20T10:24:04.002Z,11.07
2016-04-20T10:24:14.002Z,11.02
2016-04-20T10:24:24.002Z,11.13
2016-04-20T10:24:34.017Z,11.1
2016-04-20T10:24:44.017Z,11.07
2016-04-20T10:24:54.019Z,11.12
2016-04-20T10:25:04.019Z,11.16
2016-04-20T10:25:14.019Z,11.12
2016-04-20T10:25:24.035Z,11.15
2016-04-20T10:25:34.035Z,11.12
2016-04-20T10:25:44.051Z,11.08
2016-04-20T10:25:54.054Z,11.13
2016-04-20T10:26:04.054Z,11.18
2016-04-20T10:26:14.054Z,11.13
2016-04-20T10:26:24.069Z,11.16
2016-04-20T10:26:34.069Z,11.13
2016-04-20T10:26:44.085Z,11.16
2016-04-20T10:26:54.087Z,11.2
2016-04-20T10:27:04.087Z,11.22
2016-04-20T10:27:14.087Z,11.19
2016-04-20T10:27:24.087Z,11.23
2016-04-20T10:27:34.087Z,11.18
2016-04-20T10:27:44.118Z,11.19
2016-04-20T10:27:54.105Z,11.27
2016-04-20T10:28:04.105Z,11.26
2016-04-20T10:28:14.105Z,11.25
2016-04-20T10:28:24.121Z,11.26
2016-04-20T10:28:34.121Z,11.23
2016-04-20T10:28:44.137Z,11.27
2016-04-20T10:28:54.140Z,11.27
2016-04-20T10:29:04.140Z,11.25
2016-04-20T10:29:14.140Z,11.31
2016-04-20T10:29:24.155Z,11.43
2016-04-20T10:29:34.155Z,11.33
2016-04-20T10:29:44.171Z,11.33
2016-04-20T10:29:54.158Z,11.26
2016-04-20T10:30:04.158Z,11.3
2016-04-20T10:30:14.174Z,11.26
2016-04-20T10:30:24.174Z,11.26
2016-04-20T10:30:34.190Z,11.26
2016-04-20T10:30:44.205Z,11.27
2016-04-20T10:30:54.192Z,11.25
2016-04-20T10:31:04.192Z,11.26
2016-04-20T10:31:14.207Z,11.13
2016-04-20T10:31:24.207Z,11.2
2016-04-20T10:31:34.207Z,11.26
2016-04-20T10:31:44.223Z,11.2
2016-04-20T10:31:54.226Z,11.12
2016-04-20T10:32:04.226Z,11.15
2016-04-20T10:32:14.241Z,11.13
2016-04-20T10:32:24.226Z,11.1
2016-04-20T10:32:34.241Z,11.13
2016-04-20T10:32:44.257Z,11.15
2016-04-20T10:32:54.260Z,11.01
2016-04-20T10:33:04.244Z,11
2016-04-20T10:33:14.260Z,11.02
2016-04-20T10:33:24.260Z,11.02
2016-04-20T10:33:34.260Z,10.94
2016-04-20T10:33:44.276Z,10.98
2016-04-20T10:33:54.279Z,11.05
2016-04-20T10:34:04.279Z,11.04
2016-04-20T10:34:14.294Z,11.02
2016-04-20T10:34:24.294Z,10.97
2016-04-20T10:34:34.294Z,11.02
2016-04-20T10:34:44.310Z,10.92
2016-04-20T10:34:54.313Z,11.05
2016-04-20T10:35:04.329Z,10.94
2016-04-20T10:35:14.360Z,11.04
2016-04-20T10:35:24.329Z,10.95
2016-04-20T10:35:34.329Z,11.04
2016-04-20T10:35:44.344Z,10.98
2016-04-20T10:35:54.331Z,10.97
2016-04-20T10:36:04.362Z,10.9
2016-04-20T10:36:14.346Z,10.92
2016-04-20T10:36:24.346Z,10.92
2016-04-20T10:36:34.346Z,10.87
2016-04-20T10:36:44.362Z,10.83
2016-04-20T10:36:54.364Z,10.87
2016-04-20T10:37:04.364Z,10.84
2016-04-20T10:37:14.379Z,10.82
2016-04-20T10:37:24.379Z,10.86
2016-04-20T10:37:34.379Z,10.79
2016-04-20T10:37:45.317Z,10.79
2016-04-20T10:37:54.398Z,10.77
2016-04-20T10:38:04.398Z,10.8
2016-04-20T10:38:14.398Z,10.75
2016-04-20T10:38:24.398Z,10.77
2016-04-20T10:38:34.414Z,10.76
2016-04-20T10:38:44.445Z,10.69
2016-04-20T10:38:54.417Z,10.76
2016-04-20T10:39:04.432Z,10.68
2016-04-20T10:39:14.432Z,10.82
2016-04-20T10:39:24.432Z,10.68
2016-04-20T10:39:34.432Z,10.71
2016-04-20T10:39:44.448Z,10.69
2016-04-20T10:39:54.450Z,10.67